sensor_id;sensor_type;location;lat;lon;timestamp;P1;durP1;ratioP1;P2;durP2;ratioP2
11346;SDS011;5728;42.722;23.258;2023-05-29T00:01:32;5.80;;;4.47;;
11346;SDS011;5728;42.722;23.258;2023-05-29T00:04:01;6.07;;;4.20;;
11346;SDS011;5728;42.722;23.258;2023-05-29T00:06:28;4.77;;;4.07;;
11346;SDS011;5728;42.722;23.258;2023-05-29T00:08:56;6.77;;;3.90;;
11346;SDS011;5728;42.722;23.258;2023-05-29T00:11:27;6.22;;;5.00;;
11346;SDS011;5728;42.722;23.258;2023-05-29T00:14:00;6.73;;;4.70;;
11346;SDS011;5728;42.722;23.258;2023-05-29T00:16:29;6.13;;;4.87;;
11346;SDS011;5728;42.722;23.258;2023-05-29T00:18:59;7.90;;;3.97;;
11346;SDS011;5728;42.722;23.258;2023-05-29T00:21:28;8.83;;;4.47;;
11346;SDS011;5728;42.722;23.258;2023-05-29T00:24:01;5.70;;;3.90;;
11346;SDS011;5728;42.722;23.258;2023-05-29T00:26:28;8.30;;;4.20;;
11346;SDS011;5728;42.722;23.258;2023-05-29T00:28:57;6.07;;;4.10;;
11346;SDS011;5728;42.722;23.258;2023-05-29T00:31:24;4.87;;;3.83;;
11346;SDS011;5728;42.722;23.258;2023-05-29T00:33:53;6.03;;;4.30;;
11346;SDS011;5728;42.722;23.258;2023-05-29T00:36:20;7.88;;;4.50;;
11346;SDS011;5728;42.722;23.258;2023-05-29T00:38:48;7.70;;;4.13;;
11346;SDS011;5728;42.722;23.258;2023-05-29T00:41:16;4.90;;;3.80;;
11346;SDS011;5728;42.722;23.258;2023-05-29T00:43:43;7.27;;;4.33;;
11346;SDS011;5728;42.722;23.258;2023-05-29T00:46:13;4.00;;;3.53;;
11346;SDS011;5728;42.722;23.258;2023-05-29T00:48:42;7.47;;;4.70;;
11346;SDS011;5728;42.722;23.258;2023-05-29T00:51:10;5.80;;;4.20;;
11346;SDS011;5728;42.722;23.258;2023-05-29T00:53:38;5.30;;;4.00;;
11346;SDS011;5728;42.722;23.258;2023-05-29T00:56:09;4.67;;;3.67;;
11346;SDS011;5728;42.722;23.258;2023-05-29T00:58:37;7.87;;;4.10;;
11346;SDS011;5728;42.722;23.258;2023-05-29T01:01:05;6.20;;;4.37;;
11346;SDS011;5728;42.722;23.258;2023-05-29T01:03:34;8.43;;;4.90;;
11346;SDS011;5728;42.722;23.258;2023-05-29T01:06:01;6.13;;;3.80;;
11346;SDS011;5728;42.722;23.258;2023-05-29T01:08:29;4.73;;;3.87;;
11346;SDS011;5728;42.722;23.258;2023-05-29T01:10:59;4.80;;;4.13;;
11346;SDS011;5728;42.722;23.258;2023-05-29T01:13:31;8.68;;;4.00;;
11346;SDS011;5728;42.722;23.258;2023-05-29T01:16:03;6.63;;;4.33;;
11346;SDS011;5728;42.722;23.258;2023-05-29T01:18:39;6.05;;;4.05;;
11346;SDS011;5728;42.722;23.258;2023-05-29T01:21:14;9.23;;;4.40;;
11346;SDS011;5728;42.722;23.258;2023-05-29T01:24:02;8.53;;;4.40;;
11346;SDS011;5728;42.722;23.258;2023-05-29T01:26:51;10.05;;;4.55;;
11346;SDS011;5728;42.722;23.258;2023-05-29T01:29:28;6.17;;;4.30;;
11346;SDS011;5728;42.722;23.258;2023-05-29T01:31:59;5.73;;;4.53;;
11346;SDS011;5728;42.722;23.258;2023-05-29T01:34:36;6.63;;;4.90;;
11346;SDS011;5728;42.722;23.258;2023-05-29T01:37:08;8.50;;;4.50;;
11346;SDS011;5728;42.722;23.258;2023-05-29T01:39:38;6.90;;;4.40;;
11346;SDS011;5728;42.722;23.258;2023-05-29T01:42:15;5.37;;;4.40;;
11346;SDS011;5728;42.722;23.258;2023-05-29T01:44:46;4.20;;;3.80;;
11346;SDS011;5728;42.722;23.258;2023-05-29T01:47:22;9.27;;;4.90;;
11346;SDS011;5728;42.722;23.258;2023-05-29T01:49:53;5.53;;;4.57;;
11346;SDS011;5728;42.722;23.258;2023-05-29T01:52:25;5.93;;;4.30;;
11346;SDS011;5728;42.722;23.258;2023-05-29T01:54:54;6.57;;;4.80;;
11346;SDS011;5728;42.722;23.258;2023-05-29T01:57:23;7.47;;;4.60;;
11346;SDS011;5728;42.722;23.258;2023-05-29T01:59:52;8.68;;;4.93;;
11346;SDS011;5728;42.722;23.258;2023-05-29T02:02:21;9.20;;;5.03;;
11346;SDS011;5728;42.722;23.258;2023-05-29T02:04:48;6.63;;;4.70;;
11346;SDS011;5728;42.722;23.258;2023-05-29T02:07:17;9.48;;;5.53;;
11346;SDS011;5728;42.722;23.258;2023-05-29T02:09:45;7.33;;;5.20;;
11346;SDS011;5728;42.722;23.258;2023-05-29T02:12:16;7.75;;;5.32;;
11346;SDS011;5728;42.722;23.258;2023-05-29T02:14:53;11.97;;;5.90;;
11346;SDS011;5728;42.722;23.258;2023-05-29T02:17:24;9.95;;;6.53;;
11346;SDS011;5728;42.722;23.258;2023-05-29T02:19:57;6.70;;;5.30;;
11346;SDS011;5728;42.722;23.258;2023-05-29T02:22:31;5.80;;;4.77;;
11346;SDS011;5728;42.722;23.258;2023-05-29T02:25:09;8.00;;;5.40;;
11346;SDS011;5728;42.722;23.258;2023-05-29T02:27:37;7.03;;;5.17;;
11346;SDS011;5728;42.722;23.258;2023-05-29T02:30:06;6.50;;;5.30;;
11346;SDS011;5728;42.722;23.258;2023-05-29T02:32:34;11.30;;;5.73;;
11346;SDS011;5728;42.722;23.258;2023-05-29T02:35:01;6.70;;;5.10;;
11346;SDS011;5728;42.722;23.258;2023-05-29T02:37:29;9.93;;;5.83;;
11346;SDS011;5728;42.722;23.258;2023-05-29T02:39:58;9.03;;;6.63;;
11346;SDS011;5728;42.722;23.258;2023-05-29T02:42:25;6.70;;;5.40;;
11346;SDS011;5728;42.722;23.258;2023-05-29T02:44:53;6.93;;;5.07;;
11346;SDS011;5728;42.722;23.258;2023-05-29T02:47:22;7.30;;;5.10;;
11346;SDS011;5728;42.722;23.258;2023-05-29T02:49:49;9.53;;;7.23;;
11346;SDS011;5728;42.722;23.258;2023-05-29T02:52:16;8.27;;;5.63;;
11346;SDS011;5728;42.722;23.258;2023-05-29T02:54:44;8.40;;;5.30;;
11346;SDS011;5728;42.722;23.258;2023-05-29T02:57:15;5.60;;;4.90;;
11346;SDS011;5728;42.722;23.258;2023-05-29T02:59:46;11.60;;;5.00;;
11346;SDS011;5728;42.722;23.258;2023-05-29T03:02:15;14.33;;;5.73;;
11346;SDS011;5728;42.722;23.258;2023-05-29T03:04:55;8.07;;;5.20;;
11346;SDS011;5728;42.722;23.258;2023-05-29T03:07:26;6.47;;;5.57;;
11346;SDS011;5728;42.722;23.258;2023-05-29T03:10:01;8.40;;;5.57;;
11346;SDS011;5728;42.722;23.258;2023-05-29T03:12:37;9.20;;;6.27;;
11346;SDS011;5728;42.722;23.258;2023-05-29T03:15:09;9.37;;;5.67;;
11346;SDS011;5728;42.722;23.258;2023-05-29T03:17:40;14.15;;;6.30;;
11346;SDS011;5728;42.722;23.258;2023-05-29T03:20:17;9.57;;;6.47;;
11346;SDS011;5728;42.722;23.258;2023-05-29T03:22:47;13.17;;;6.90;;
11346;SDS011;5728;42.722;23.258;2023-05-29T03:25:18;11.33;;;6.50;;
11346;SDS011;5728;42.722;23.258;2023-05-29T03:27:50;14.17;;;6.37;;
11346;SDS011;5728;42.722;23.258;2023-05-29T03:30:23;10.60;;;6.80;;
11346;SDS011;5728;42.722;23.258;2023-05-29T03:32:53;7.97;;;5.87;;
11346;SDS011;5728;42.722;23.258;2023-05-29T03:35:33;9.77;;;6.10;;
11346;SDS011;5728;42.722;23.258;2023-05-29T03:38:05;8.67;;;6.00;;
11346;SDS011;5728;42.722;23.258;2023-05-29T03:40:40;10.70;;;6.67;;
11346;SDS011;5728;42.722;23.258;2023-05-29T03:43:12;12.10;;;7.23;;
11346;SDS011;5728;42.722;23.258;2023-05-29T03:45:42;13.50;;;6.67;;
11346;SDS011;5728;42.722;23.258;2023-05-29T03:48:15;13.43;;;6.82;;
11346;SDS011;5728;42.722;23.258;2023-05-29T03:50:47;15.43;;;7.60;;
11346;SDS011;5728;42.722;23.258;2023-05-29T03:53:22;12.33;;;6.37;;
11346;SDS011;5728;42.722;23.258;2023-05-29T03:58:25;9.77;;;6.05;;
11346;SDS011;5728;42.722;23.258;2023-05-29T04:03:34;15.35;;;6.70;;
11346;SDS011;5728;42.722;23.258;2023-05-29T04:08:42;14.18;;;5.75;;
11346;SDS011;5728;42.722;23.258;2023-05-29T04:11:09;10.50;;;7.38;;
11346;SDS011;5728;42.722;23.258;2023-05-29T04:13:37;12.70;;;5.90;;
11346;SDS011;5728;42.722;23.258;2023-05-29T04:16:06;10.15;;;6.50;;
11346;SDS011;5728;42.722;23.258;2023-05-29T04:18:33;10.20;;;5.40;;
11346;SDS011;5728;42.722;23.258;2023-05-29T04:21:00;9.95;;;5.90;;
11346;SDS011;5728;42.722;23.258;2023-05-29T04:23:26;11.38;;;5.85;;
11346;SDS011;5728;42.722;23.258;2023-05-29T04:25:55;11.68;;;5.35;;
11346;SDS011;5728;42.722;23.258;2023-05-29T04:28:21;9.60;;;5.43;;
11346;SDS011;5728;42.722;23.258;2023-05-29T04:30:48;6.15;;;5.13;;
11346;SDS011;5728;42.722;23.258;2023-05-29T04:33:17;8.17;;;6.37;;
11346;SDS011;5728;42.722;23.258;2023-05-29T04:35:46;12.20;;;5.78;;
11346;SDS011;5728;42.722;23.258;2023-05-29T04:38:13;10.57;;;6.20;;
11346;SDS011;5728;42.722;23.258;2023-05-29T04:40:41;8.40;;;5.50;;
11346;SDS011;5728;42.722;23.258;2023-05-29T04:43:09;8.25;;;5.60;;
11346;SDS011;5728;42.722;23.258;2023-05-29T04:45:36;9.35;;;6.07;;
11346;SDS011;5728;42.722;23.258;2023-05-29T04:48:03;11.95;;;6.20;;
11346;SDS011;5728;42.722;23.258;2023-05-29T04:50:30;9.85;;;5.72;;
11346;SDS011;5728;42.722;23.258;2023-05-29T04:52:57;8.77;;;5.82;;
11346;SDS011;5728;42.722;23.258;2023-05-29T04:55:24;13.27;;;6.25;;
11346;SDS011;5728;42.722;23.258;2023-05-29T04:57:51;10.82;;;5.53;;
11346;SDS011;5728;42.722;23.258;2023-05-29T05:00:19;9.25;;;6.00;;
11346;SDS011;5728;42.722;23.258;2023-05-29T05:02:47;12.23;;;6.18;;
11346;SDS011;5728;42.722;23.258;2023-05-29T05:05:14;12.07;;;6.15;;
11346;SDS011;5728;42.722;23.258;2023-05-29T05:07:40;8.55;;;5.18;;
11346;SDS011;5728;42.722;23.258;2023-05-29T05:10:08;18.50;;;6.93;;
11346;SDS011;5728;42.722;23.258;2023-05-29T05:12:35;11.48;;;5.55;;
11346;SDS011;5728;42.722;23.258;2023-05-29T05:15:02;12.95;;;5.57;;
11346;SDS011;5728;42.722;23.258;2023-05-29T05:17:31;6.88;;;4.82;;
11346;SDS011;5728;42.722;23.258;2023-05-29T05:19:58;10.45;;;5.60;;
11346;SDS011;5728;42.722;23.258;2023-05-29T05:22:24;10.45;;;6.40;;
11346;SDS011;5728;42.722;23.258;2023-05-29T05:24:51;14.82;;;5.93;;
11346;SDS011;5728;42.722;23.258;2023-05-29T05:27:19;26.33;;;7.72;;
11346;SDS011;5728;42.722;23.258;2023-05-29T05:29:46;11.68;;;6.45;;
11346;SDS011;5728;42.722;23.258;2023-05-29T05:32:13;19.17;;;6.72;;
11346;SDS011;5728;42.722;23.258;2023-05-29T05:34:42;14.20;;;7.03;;
11346;SDS011;5728;42.722;23.258;2023-05-29T05:37:09;14.20;;;6.10;;
11346;SDS011;5728;42.722;23.258;2023-05-29T05:39:36;14.77;;;6.28;;
11346;SDS011;5728;42.722;23.258;2023-05-29T05:42:03;20.95;;;6.72;;
11346;SDS011;5728;42.722;23.258;2023-05-29T05:44:30;9.80;;;5.50;;
11346;SDS011;5728;42.722;23.258;2023-05-29T05:46:57;11.95;;;5.68;;
11346;SDS011;5728;42.722;23.258;2023-05-29T05:49:24;12.25;;;4.63;;
11346;SDS011;5728;42.722;23.258;2023-05-29T05:51:52;7.68;;;4.95;;
11346;SDS011;5728;42.722;23.258;2023-05-29T05:54:18;11.63;;;5.32;;
11346;SDS011;5728;42.722;23.258;2023-05-29T05:56:45;9.23;;;5.38;;
11346;SDS011;5728;42.722;23.258;2023-05-29T05:59:12;8.10;;;5.00;;
11346;SDS011;5728;42.722;23.258;2023-05-29T06:01:39;10.30;;;5.43;;
11346;SDS011;5728;42.722;23.258;2023-05-29T06:04:06;7.90;;;4.93;;
11346;SDS011;5728;42.722;23.258;2023-05-29T06:06:33;8.18;;;4.43;;
11346;SDS011;5728;42.722;23.258;2023-05-29T06:09:01;6.95;;;3.90;;
11346;SDS011;5728;42.722;23.258;2023-05-29T06:11:29;7.18;;;4.63;;
11346;SDS011;5728;42.722;23.258;2023-05-29T06:13:56;7.57;;;4.72;;
11346;SDS011;5728;42.722;23.258;2023-05-29T06:16:23;10.50;;;5.22;;
11346;SDS011;5728;42.722;23.258;2023-05-29T06:18:50;6.15;;;4.18;;
11346;SDS011;5728;42.722;23.258;2023-05-29T06:21:17;9.55;;;4.78;;
11346;SDS011;5728;42.722;23.258;2023-05-29T06:23:44;9.57;;;4.50;;
11346;SDS011;5728;42.722;23.258;2023-05-29T06:26:12;11.63;;;4.70;;
11346;SDS011;5728;42.722;23.258;2023-05-29T06:28:40;5.47;;;3.90;;
11346;SDS011;5728;42.722;23.258;2023-05-29T06:31:08;8.70;;;4.28;;
11346;SDS011;5728;42.722;23.258;2023-05-29T06:33:35;6.68;;;4.63;;
11346;SDS011;5728;42.722;23.258;2023-05-29T06:36:02;16.05;;;4.03;;
11346;SDS011;5728;42.722;23.258;2023-05-29T06:38:29;6.60;;;3.58;;
11346;SDS011;5728;42.722;23.258;2023-05-29T06:43:28;4.95;;;4.45;;
11346;SDS011;5728;42.722;23.258;2023-05-29T06:45:57;5.82;;;3.70;;
11346;SDS011;5728;42.722;23.258;2023-05-29T06:48:26;8.48;;;4.32;;
11346;SDS011;5728;42.722;23.258;2023-05-29T06:51:07;9.90;;;4.40;;
11346;SDS011;5728;42.722;23.258;2023-05-29T06:53:43;3.85;;;3.42;;
11346;SDS011;5728;42.722;23.258;2023-05-29T06:56:14;5.57;;;3.58;;
11346;SDS011;5728;42.722;23.258;2023-05-29T06:58:49;6.25;;;4.03;;
11346;SDS011;5728;42.722;23.258;2023-05-29T07:04:01;11.73;;;3.60;;
11346;SDS011;5728;42.722;23.258;2023-05-29T07:09:12;3.55;;;2.85;;
11346;SDS011;5728;42.722;23.258;2023-05-29T07:11:42;4.93;;;3.40;;
11346;SDS011;5728;42.722;23.258;2023-05-29T07:14:12;11.52;;;3.67;;
11346;SDS011;5728;42.722;23.258;2023-05-29T07:16:39;5.78;;;3.22;;
11346;SDS011;5728;42.722;23.258;2023-05-29T07:19:06;3.08;;;2.53;;
11346;SDS011;5728;42.722;23.258;2023-05-29T07:21:32;3.35;;;2.60;;
11346;SDS011;5728;42.722;23.258;2023-05-29T07:24:00;3.28;;;2.67;;
11346;SDS011;5728;42.722;23.258;2023-05-29T07:26:27;2.53;;;2.33;;
11346;SDS011;5728;42.722;23.258;2023-05-29T07:28:55;2.50;;;2.30;;
11346;SDS011;5728;42.722;23.258;2023-05-29T07:31:24;5.60;;;2.90;;
11346;SDS011;5728;42.722;23.258;2023-05-29T07:33:50;3.05;;;1.90;;
11346;SDS011;5728;42.722;23.258;2023-05-29T07:36:17;2.25;;;1.65;;
11346;SDS011;5728;42.722;23.258;2023-05-29T07:38:44;5.85;;;1.85;;
11346;SDS011;5728;42.722;23.258;2023-05-29T07:41:11;2.22;;;1.90;;
11346;SDS011;5728;42.722;23.258;2023-05-29T07:43:37;5.35;;;2.13;;
11346;SDS011;5728;42.722;23.258;2023-05-29T07:46:04;2.47;;;1.98;;
11346;SDS011;5728;42.722;23.258;2023-05-29T07:48:32;2.30;;;2.10;;
11346;SDS011;5728;42.722;23.258;2023-05-29T07:50:59;2.65;;;1.77;;
11346;SDS011;5728;42.722;23.258;2023-05-29T07:53:26;2.83;;;2.20;;
11346;SDS011;5728;42.722;23.258;2023-05-29T07:55:53;1.85;;;1.67;;
11346;SDS011;5728;42.722;23.258;2023-05-29T07:58:20;4.55;;;2.08;;
11346;SDS011;5728;42.722;23.258;2023-05-29T08:00:47;3.30;;;2.28;;
11346;SDS011;5728;42.722;23.258;2023-05-29T08:03:14;3.65;;;1.85;;
11346;SDS011;5728;42.722;23.258;2023-05-29T08:05:42;2.90;;;2.00;;
11346;SDS011;5728;42.722;23.258;2023-05-29T08:08:09;3.10;;;1.90;;
11346;SDS011;5728;42.722;23.258;2023-05-29T08:10:37;3.05;;;2.08;;
11346;SDS011;5728;42.722;23.258;2023-05-29T08:13:04;4.07;;;2.00;;
11346;SDS011;5728;42.722;23.258;2023-05-29T08:15:31;6.28;;;2.10;;
11346;SDS011;5728;42.722;23.258;2023-05-29T08:17:58;2.95;;;2.10;;
11346;SDS011;5728;42.722;23.258;2023-05-29T08:20:25;4.72;;;2.10;;
11346;SDS011;5728;42.722;23.258;2023-05-29T08:22:53;2.60;;;2.00;;
11346;SDS011;5728;42.722;23.258;2023-05-29T08:25:20;4.05;;;2.00;;
11346;SDS011;5728;42.722;23.258;2023-05-29T08:27:46;5.40;;;2.63;;
11346;SDS011;5728;42.722;23.258;2023-05-29T08:30:13;2.17;;;1.98;;
11346;SDS011;5728;42.722;23.258;2023-05-29T08:32:41;3.95;;;2.08;;
11346;SDS011;5728;42.722;23.258;2023-05-29T08:35:08;2.72;;;2.13;;
11346;SDS011;5728;42.722;23.258;2023-05-29T08:37:35;3.20;;;2.50;;
11346;SDS011;5728;42.722;23.258;2023-05-29T08:40:03;2.08;;;1.88;;
11346;SDS011;5728;42.722;23.258;2023-05-29T08:42:35;2.95;;;2.30;;
11346;SDS011;5728;42.722;23.258;2023-05-29T08:45:06;3.33;;;2.22;;
11346;SDS011;5728;42.722;23.258;2023-05-29T08:47:38;2.60;;;2.40;;
11346;SDS011;5728;42.722;23.258;2023-05-29T08:50:07;4.72;;;2.40;;
11346;SDS011;5728;42.722;23.258;2023-05-29T08:52:35;2.08;;;1.88;;
11346;SDS011;5728;42.722;23.258;2023-05-29T08:55:03;4.35;;;2.70;;
11346;SDS011;5728;42.722;23.258;2023-05-29T08:57:31;4.05;;;2.83;;
11346;SDS011;5728;42.722;23.258;2023-05-29T08:59:59;5.22;;;2.55;;
11346;SDS011;5728;42.722;23.258;2023-05-29T09:02:28;3.17;;;2.42;;
11346;SDS011;5728;42.722;23.258;2023-05-29T09:04:54;2.38;;;2.17;;
11346;SDS011;5728;42.722;23.258;2023-05-29T09:07:23;3.63;;;2.25;;
11346;SDS011;5728;42.722;23.258;2023-05-29T09:09:51;3.28;;;2.80;;
11346;SDS011;5728;42.722;23.258;2023-05-29T09:12:19;4.10;;;2.08;;
11346;SDS011;5728;42.722;23.258;2023-05-29T09:14:47;4.38;;;2.67;;
11346;SDS011;5728;42.722;23.258;2023-05-29T09:17:13;7.07;;;2.70;;
11346;SDS011;5728;42.722;23.258;2023-05-29T09:19:41;4.20;;;2.90;;
11346;SDS011;5728;42.722;23.258;2023-05-29T09:22:09;2.58;;;2.38;;
11346;SDS011;5728;42.722;23.258;2023-05-29T09:24:39;4.25;;;2.30;;
11346;SDS011;5728;42.722;23.258;2023-05-29T09:27:08;4.97;;;2.25;;
11346;SDS011;5728;42.722;23.258;2023-05-29T09:29:42;2.45;;;2.25;;
11346;SDS011;5728;42.722;23.258;2023-05-29T09:32:14;3.38;;;2.55;;
11346;SDS011;5728;42.722;23.258;2023-05-29T09:34:47;2.72;;;2.42;;
11346;SDS011;5728;42.722;23.258;2023-05-29T09:37:24;2.30;;;2.10;;
11346;SDS011;5728;42.722;23.258;2023-05-29T09:40:01;3.83;;;3.05;;
11346;SDS011;5728;42.722;23.258;2023-05-29T09:42:31;3.25;;;2.60;;
11346;SDS011;5728;42.722;23.258;2023-05-29T09:44:59;3.40;;;2.75;;
11346;SDS011;5728;42.722;23.258;2023-05-29T09:47:29;2.50;;;2.30;;
11346;SDS011;5728;42.722;23.258;2023-05-29T09:49:59;6.18;;;2.20;;
11346;SDS011;5728;42.722;23.258;2023-05-29T09:52:28;3.58;;;2.53;;
11346;SDS011;5728;42.722;23.258;2023-05-29T09:54:57;3.17;;;2.33;;
11346;SDS011;5728;42.722;23.258;2023-05-29T09:57:25;2.70;;;2.47;;
11346;SDS011;5728;42.722;23.258;2023-05-29T09:59:53;3.58;;;2.88;;
11346;SDS011;5728;42.722;23.258;2023-05-29T10:02:22;4.93;;;2.85;;
11346;SDS011;5728;42.722;23.258;2023-05-29T10:04:49;4.00;;;2.25;;
11346;SDS011;5728;42.722;23.258;2023-05-29T10:07:19;8.85;;;2.88;;
11346;SDS011;5728;42.722;23.258;2023-05-29T10:09:52;3.53;;;2.72;;
11346;SDS011;5728;42.722;23.258;2023-05-29T10:12:23;3.05;;;2.35;;
11346;SDS011;5728;42.722;23.258;2023-05-29T10:14:52;3.53;;;2.95;;
11346;SDS011;5728;42.722;23.258;2023-05-29T10:17:25;3.58;;;2.45;;
11346;SDS011;5728;42.722;23.258;2023-05-29T10:19:54;4.57;;;2.83;;
11346;SDS011;5728;42.722;23.258;2023-05-29T10:22:24;3.47;;;2.65;;
11346;SDS011;5728;42.722;23.258;2023-05-29T10:24:53;4.32;;;2.58;;
11346;SDS011;5728;42.722;23.258;2023-05-29T10:27:23;2.85;;;2.40;;
11346;SDS011;5728;42.722;23.258;2023-05-29T10:29:52;3.13;;;2.70;;
11346;SDS011;5728;42.722;23.258;2023-05-29T10:32:29;2.50;;;2.30;;
11346;SDS011;5728;42.722;23.258;2023-05-29T10:35:06;4.57;;;2.78;;
11346;SDS011;5728;42.722;23.258;2023-05-29T10:37:40;3.10;;;2.67;;
11346;SDS011;5728;42.722;23.258;2023-05-29T10:40:11;3.88;;;2.67;;
11346;SDS011;5728;42.722;23.258;2023-05-29T10:42:43;3.20;;;2.50;;
11346;SDS011;5728;42.722;23.258;2023-05-29T10:45:47;4.22;;;2.53;;
11346;SDS011;5728;42.722;23.258;2023-05-29T10:48:37;2.92;;;2.30;;
11346;SDS011;5728;42.722;23.258;2023-05-29T10:51:08;3.28;;;2.35;;
11346;SDS011;5728;42.722;23.258;2023-05-29T10:53:49;3.45;;;2.17;;
11346;SDS011;5728;42.722;23.258;2023-05-29T10:56:20;7.95;;;2.55;;
11346;SDS011;5728;42.722;23.258;2023-05-29T10:58:51;4.60;;;2.45;;
11346;SDS011;5728;42.722;23.258;2023-05-29T11:01:20;2.92;;;2.47;;
11346;SDS011;5728;42.722;23.258;2023-05-29T11:03:49;2.58;;;1.95;;
11346;SDS011;5728;42.722;23.258;2023-05-29T11:06:17;2.65;;;2.15;;
11346;SDS011;5728;42.722;23.258;2023-05-29T11:08:46;4.13;;;2.47;;
11346;SDS011;5728;42.722;23.258;2023-05-29T11:11:13;4.75;;;2.88;;
11346;SDS011;5728;42.722;23.258;2023-05-29T11:13:41;3.70;;;2.92;;
11346;SDS011;5728;42.722;23.258;2023-05-29T11:16:19;4.85;;;2.80;;
11346;SDS011;5728;42.722;23.258;2023-05-29T11:19:04;4.47;;;2.63;;
11346;SDS011;5728;42.722;23.258;2023-05-29T11:21:41;3.08;;;2.50;;
11346;SDS011;5728;42.722;23.258;2023-05-29T11:24:22;10.43;;;5.68;;
11346;SDS011;5728;42.722;23.258;2023-05-29T11:26:50;8.02;;;4.53;;
11346;SDS011;5728;42.722;23.258;2023-05-29T11:29:20;24.55;;;18.15;;
11346;SDS011;5728;42.722;23.258;2023-05-29T11:31:48;4.13;;;2.72;;
11346;SDS011;5728;42.722;23.258;2023-05-29T11:34:23;3.45;;;2.80;;
11346;SDS011;5728;42.722;23.258;2023-05-29T11:36:54;4.47;;;2.50;;
11346;SDS011;5728;42.722;23.258;2023-05-29T11:39:22;3.65;;;2.67;;
11346;SDS011;5728;42.722;23.258;2023-05-29T11:41:50;3.58;;;2.80;;
11346;SDS011;5728;42.722;23.258;2023-05-29T11:44:18;3.88;;;3.05;;
11346;SDS011;5728;42.722;23.258;2023-05-29T11:46:45;8.23;;;3.30;;
11346;SDS011;5728;42.722;23.258;2023-05-29T11:49:11;3.08;;;2.70;;
11346;SDS011;5728;42.722;23.258;2023-05-29T11:51:41;4.72;;;2.90;;
11346;SDS011;5728;42.722;23.258;2023-05-29T11:54:08;4.30;;;2.67;;
11346;SDS011;5728;42.722;23.258;2023-05-29T11:56:35;8.38;;;2.60;;
11346;SDS011;5728;42.722;23.258;2023-05-29T11:59:05;4.38;;;2.65;;
11346;SDS011;5728;42.722;23.258;2023-05-29T12:01:37;4.80;;;2.70;;
11346;SDS011;5728;42.722;23.258;2023-05-29T12:04:13;5.65;;;2.70;;
11346;SDS011;5728;42.722;23.258;2023-05-29T12:06:43;5.82;;;2.85;;
11346;SDS011;5728;42.722;23.258;2023-05-29T12:09:09;6.03;;;2.60;;
11346;SDS011;5728;42.722;23.258;2023-05-29T12:11:50;3.20;;;2.45;;
11346;SDS011;5728;42.722;23.258;2023-05-29T12:14:17;4.75;;;2.85;;
11346;SDS011;5728;42.722;23.258;2023-05-29T12:16:43;3.50;;;3.13;;
11346;SDS011;5728;42.722;23.258;2023-05-29T12:19:10;8.20;;;2.30;;
11346;SDS011;5728;42.722;23.258;2023-05-29T12:21:40;7.13;;;3.08;;
11346;SDS011;5728;42.722;23.258;2023-05-29T12:24:09;9.68;;;2.70;;
11346;SDS011;5728;42.722;23.258;2023-05-29T12:26:36;5.07;;;2.95;;
11346;SDS011;5728;42.722;23.258;2023-05-29T12:29:03;5.60;;;2.78;;
11346;SDS011;5728;42.722;23.258;2023-05-29T12:31:31;4.88;;;2.67;;
11346;SDS011;5728;42.722;23.258;2023-05-29T12:33:59;7.45;;;3.00;;
11346;SDS011;5728;42.722;23.258;2023-05-29T12:36:27;6.65;;;2.92;;
11346;SDS011;5728;42.722;23.258;2023-05-29T12:38:55;4.75;;;3.05;;
11346;SDS011;5728;42.722;23.258;2023-05-29T12:41:24;6.20;;;2.72;;
11346;SDS011;5728;42.722;23.258;2023-05-29T12:43:55;4.68;;;2.70;;
11346;SDS011;5728;42.722;23.258;2023-05-29T12:46:23;4.13;;;2.78;;
11346;SDS011;5728;42.722;23.258;2023-05-29T12:49:10;6.60;;;3.53;;
11346;SDS011;5728;42.722;23.258;2023-05-29T12:51:45;5.95;;;3.47;;
11346;SDS011;5728;42.722;23.258;2023-05-29T12:54:15;5.43;;;2.90;;
11346;SDS011;5728;42.722;23.258;2023-05-29T12:56:44;4.25;;;3.20;;
11346;SDS011;5728;42.722;23.258;2023-05-29T12:59:16;4.35;;;2.88;;
11346;SDS011;5728;42.722;23.258;2023-05-29T13:01:44;5.25;;;2.83;;
11346;SDS011;5728;42.722;23.258;2023-05-29T13:04:14;5.45;;;2.47;;
11346;SDS011;5728;42.722;23.258;2023-05-29T13:06:43;6.90;;;2.50;;
11346;SDS011;5728;42.722;23.258;2023-05-29T13:09:11;3.00;;;2.53;;
11346;SDS011;5728;42.722;23.258;2023-05-29T13:11:44;2.95;;;2.55;;
11346;SDS011;5728;42.722;23.258;2023-05-29T13:14:13;4.25;;;2.53;;
11346;SDS011;5728;42.722;23.258;2023-05-29T13:16:40;3.22;;;2.30;;
11346;SDS011;5728;42.722;23.258;2023-05-29T13:19:11;2.88;;;2.67;;
11346;SDS011;5728;42.722;23.258;2023-05-29T13:21:45;3.25;;;2.95;;
11346;SDS011;5728;42.722;23.258;2023-05-29T13:24:16;4.13;;;2.78;;
11346;SDS011;5728;42.722;23.258;2023-05-29T13:26:46;9.25;;;2.92;;
11346;SDS011;5728;42.722;23.258;2023-05-29T13:29:20;2.70;;;2.35;;
11346;SDS011;5728;42.722;23.258;2023-05-29T13:31:49;7.78;;;2.67;;
11346;SDS011;5728;42.722;23.258;2023-05-29T13:34:16;9.32;;;2.25;;
11346;SDS011;5728;42.722;23.258;2023-05-29T13:36:42;4.30;;;2.65;;
11346;SDS011;5728;42.722;23.258;2023-05-29T13:39:10;2.63;;;2.30;;
11346;SDS011;5728;42.722;23.258;2023-05-29T13:41:36;3.03;;;1.70;;
11346;SDS011;5728;42.722;23.258;2023-05-29T13:44:04;3.58;;;1.60;;
11346;SDS011;5728;42.722;23.258;2023-05-29T13:46:31;1.70;;;1.60;;
11346;SDS011;5728;42.722;23.258;2023-05-29T13:48:58;2.15;;;1.63;;
11346;SDS011;5728;42.722;23.258;2023-05-29T13:51:25;6.53;;;1.67;;
11346;SDS011;5728;42.722;23.258;2023-05-29T13:53:52;3.67;;;1.50;;
11346;SDS011;5728;42.722;23.258;2023-05-29T13:56:18;3.05;;;1.38;;
11346;SDS011;5728;42.722;23.258;2023-05-29T13:58:45;2.35;;;1.20;;
11346;SDS011;5728;42.722;23.258;2023-05-29T14:01:13;2.67;;;1.65;;
11346;SDS011;5728;42.722;23.258;2023-05-29T14:03:43;6.32;;;1.50;;
11346;SDS011;5728;42.722;23.258;2023-05-29T14:06:10;2.10;;;1.20;;
11346;SDS011;5728;42.722;23.258;2023-05-29T14:08:37;2.97;;;1.15;;
11346;SDS011;5728;42.722;23.258;2023-05-29T14:11:04;2.50;;;1.48;;
11346;SDS011;5728;42.722;23.258;2023-05-29T14:13:31;1.52;;;1.05;;
11346;SDS011;5728;42.722;23.258;2023-05-29T14:15:58;2.53;;;1.30;;
11346;SDS011;5728;42.722;23.258;2023-05-29T14:18:34;1.30;;;1.20;;
11346;SDS011;5728;42.722;23.258;2023-05-29T14:21:19;2.47;;;1.90;;
11346;SDS011;5728;42.722;23.258;2023-05-29T14:23:52;6.72;;;4.47;;
11346;SDS011;5728;42.722;23.258;2023-05-29T14:26:23;3.67;;;3.33;;
11346;SDS011;5728;42.722;23.258;2023-05-29T14:28:51;3.88;;;2.70;;
11346;SDS011;5728;42.722;23.258;2023-05-29T14:31:21;24.00;;;18.40;;
11346;SDS011;5728;42.722;23.258;2023-05-29T14:33:49;33.33;;;19.45;;
11346;SDS011;5728;42.722;23.258;2023-05-29T14:36:16;2.53;;;2.33;;
11346;SDS011;5728;42.722;23.258;2023-05-29T14:38:43;2.58;;;1.80;;
11346;SDS011;5728;42.722;23.258;2023-05-29T14:41:11;11.40;;;1.55;;
11346;SDS011;5728;42.722;23.258;2023-05-29T14:43:38;1.55;;;1.45;;
11346;SDS011;5728;42.722;23.258;2023-05-29T14:46:05;2.63;;;1.70;;
11346;SDS011;5728;42.722;23.258;2023-05-29T14:48:36;3.28;;;2.30;;
11346;SDS011;5728;42.722;23.258;2023-05-29T14:51:06;1.85;;;1.50;;
11346;SDS011;5728;42.722;23.258;2023-05-29T14:53:35;3.65;;;1.80;;
11346;SDS011;5728;42.722;23.258;2023-05-29T14:56:04;3.75;;;1.60;;
11346;SDS011;5728;42.722;23.258;2023-05-29T14:58:35;2.17;;;1.85;;
11346;SDS011;5728;42.722;23.258;2023-05-29T15:01:02;7.13;;;1.83;;
11346;SDS011;5728;42.722;23.258;2023-05-29T15:03:32;2.83;;;1.70;;
11346;SDS011;5728;42.722;23.258;2023-05-29T15:08:34;1.95;;;1.75;;
11346;SDS011;5728;42.722;23.258;2023-05-29T15:13:59;5.80;;;2.53;;
11346;SDS011;5728;42.722;23.258;2023-05-29T15:16:27;1.88;;;1.75;;
11346;SDS011;5728;42.722;23.258;2023-05-29T15:19:04;5.18;;;2.08;;
11346;SDS011;5728;42.722;23.258;2023-05-29T15:21:31;5.15;;;2.60;;